createdAt,value
2023-05-14T00:00:28.018Z,11.18
2023-05-14T00:01:28.360Z,11.15
2023-05-14T00:02:28.109Z,11.12
2023-05-14T00:03:28.204Z,11.12
2023-05-14T00:04:28.054Z,11.09
2023-05-14T00:05:28.443Z,11.09
2023-05-14T00:06:28.037Z,11.04
2023-05-14T00:07:28.043Z,11.03
2023-05-14T00:08:28.181Z,11.00
2023-05-14T00:09:28.028Z,10.94
2023-05-14T00:10:28.508Z,10.94
2023-05-14T00:11:28.162Z,10.90
2023-05-14T00:12:28.070Z,10.90
2023-05-14T00:13:28.582Z,10.86
2023-05-14T00:14:28.178Z,10.90
2023-05-14T00:15:28.218Z,10.95
2023-05-14T00:16:28.264Z,11.00
2023-05-14T00:17:28.029Z,10.97
2023-05-14T00:18:28.225Z,11.00
2023-05-14T00:19:28.332Z,10.95
2023-05-14T00:20:28.410Z,10.90
2023-05-14T00:21:28.469Z,10.93
2023-05-14T00:22:28.491Z,10.93
2023-05-14T00:23:28.373Z,10.90
2023-05-14T00:24:28.893Z,10.86
2023-05-14T00:25:27.967Z,10.85
2023-05-14T00:26:28.904Z,10.80
2023-05-14T00:27:27.860Z,10.80
2023-05-14T00:28:28.388Z,10.78
2023-05-14T00:29:28.390Z,10.79
2023-05-14T00:30:28.052Z,10.78
2023-05-14T00:31:27.963Z,10.76
2023-05-14T00:32:28.124Z,10.78
2023-05-14T00:33:28.978Z,10.76
2023-05-14T00:34:27.861Z,10.73
2023-05-14T00:35:28.520Z,10.72
2023-05-14T00:36:27.784Z,10.70
2023-05-14T00:37:28.452Z,10.68
2023-05-14T00:38:28.282Z,10.64
2023-05-14T00:39:27.814Z,10.62
2023-05-14T00:40:27.835Z,10.62
2023-05-14T00:41:27.741Z,10.60
2023-05-14T00:42:27.744Z,10.57
2023-05-14T00:43:27.732Z,10.58
2023-05-14T00:44:27.771Z,10.60
2023-05-14T00:45:27.869Z,10.60
2023-05-14T00:46:27.749Z,10.57
2023-05-14T00:47:27.865Z,10.57
2023-05-14T00:48:27.768Z,10.60
2023-05-14T00:49:27.797Z,10.60
2023-05-14T00:50:27.873Z,10.61
2023-05-14T00:51:27.920Z,10.61
2023-05-14T00:52:27.702Z,10.64
2023-05-14T00:53:28.073Z,10.65
2023-05-14T00:54:28.153Z,10.62
2023-05-14T00:55:27.914Z,10.58
2023-05-14T00:56:27.649Z,10.57
2023-05-14T00:57:28.333Z,10.57
2023-05-14T00:58:28.369Z,10.58
2023-05-14T00:59:28.458Z,10.58
2023-05-14T01:00:28.004Z,10.57
2023-05-14T01:01:28.247Z,10.57
2023-05-14T01:02:27.949Z,10.55
2023-05-14T01:03:28.723Z,10.49
2023-05-14T01:04:27.604Z,10.46
2023-05-14T01:05:27.641Z,10.48
2023-05-14T01:06:27.859Z,10.43
2023-05-14T01:07:28.004Z,10.43
2023-05-14T01:08:28.115Z,10.48
2023-05-14T01:09:27.584Z,10.43
2023-05-14T01:10:28.238Z,10.45
2023-05-14T01:11:28.356Z,10.43
2023-05-14T01:12:28.513Z,10.42
2023-05-14T01:13:28.046Z,10.39
2023-05-14T01:14:27.678Z,10.42
2023-05-14T01:15:28.202Z,10.36
2023-05-14T01:16:27.672Z,10.31
2023-05-14T01:17:27.549Z,10.28
2023-05-14T01:18:27.615Z,10.24
2023-05-14T01:19:27.672Z,10.26
2023-05-14T01:20:27.707Z,10.26
2023-05-14T01:21:27.743Z,10.24
2023-05-14T01:22:27.835Z,10.23
2023-05-14T01:23:27.498Z,10.20
2023-05-14T01:24:27.626Z,10.21
2023-05-14T01:25:28.014Z,10.18
2023-05-14T01:26:28.090Z,10.14
2023-05-14T01:27:28.162Z,10.14
2023-05-14T01:28:27.560Z,10.12
2023-05-14T01:29:27.587Z,10.14
2023-05-14T01:30:28.374Z,10.12
2023-05-14T01:31:27.408Z,10.05
2023-05-14T01:32:27.700Z,10.05
2023-05-14T01:33:27.565Z,9.99
2023-05-14T01:34:27.419Z,9.96
2023-05-14T01:35:27.485Z,9.91
2023-05-14T01:36:27.541Z,9.91
2023-05-14T01:37:27.370Z,9.90
2023-05-14T01:38:27.640Z,9.88
2023-05-14T01:39:27.690Z,9.87
2023-05-14T01:40:27.740Z,9.84
2023-05-14T01:41:27.337Z,9.80
2023-05-14T01:42:27.566Z,9.81
2023-05-14T01:43:27.489Z,9.83
2023-05-14T01:44:27.328Z,9.81
2023-05-14T01:45:27.384Z,9.78
2023-05-14T01:46:27.476Z,9.80
2023-05-14T01:47:27.518Z,9.75
2023-05-14T01:48:27.577Z,9.72
2023-05-14T01:49:27.650Z,9.73
2023-05-14T01:50:27.269Z,9.70
2023-05-14T01:51:27.354Z,9.67
2023-05-14T01:52:27.265Z,9.66
2023-05-14T01:53:27.898Z,9.69
2023-05-14T01:54:27.936Z,9.72
2023-05-14T01:55:27.464Z,9.69
2023-05-14T01:56:27.291Z,9.69
2023-05-14T01:57:27.280Z,9.69
2023-05-14T01:58:27.747Z,9.70
2023-05-14T01:59:27.350Z,9.69
2023-05-14T02:00:27.929Z,9.65
2023-05-14T02:01:27.296Z,9.59
2023-05-14T02:02:27.327Z,9.50
2023-05-14T02:03:27.964Z,9.48
2023-05-14T02:04:27.682Z,9.54
2023-05-14T02:05:27.921Z,9.50
2023-05-14T02:06:28.184Z,9.50
2023-05-14T02:07:28.085Z,9.50
2023-05-14T02:08:27.238Z,9.51
2023-05-14T02:09:27.741Z,9.44
2023-05-14T02:10:28.058Z,9.42
2023-05-14T02:11:27.956Z,9.41
2023-05-14T02:12:28.017Z,9.36
2023-05-14T02:13:27.094Z,9.34
2023-05-14T02:14:27.122Z,9.36
2023-05-14T02:15:27.163Z,9.30
2023-05-14T02:16:27.282Z,9.29
2023-05-14T02:17:27.317Z,9.26
2023-05-14T02:18:27.339Z,9.19
2023-05-14T02:19:27.384Z,9.18
2023-05-14T02:20:27.061Z,9.16
2023-05-14T02:21:27.054Z,9.22
2023-05-14T02:22:27.045Z,9.22
2023-05-14T02:23:37.829Z,9.22
2023-05-14T02:24:27.067Z,9.18
2023-05-14T02:25:27.038Z,9.16
2023-05-14T02:26:27.085Z,9.15
2023-05-14T02:27:27.054Z,9.14
2023-05-14T02:28:27.127Z,9.14
2023-05-14T02:29:27.146Z,9.12
2023-05-14T02:30:27.131Z,9.11
2023-05-14T02:31:27.090Z,9.12
2023-05-14T02:32:27.219Z,9.09
2023-05-14T02:33:27.158Z,9.08
2023-05-14T02:34:27.136Z,9.04
2023-05-14T02:35:27.168Z,9.01
2023-05-14T02:36:27.164Z,9.06
2023-05-14T02:37:26.951Z,8.99
2023-05-14T02:38:27.194Z,8.99
2023-05-14T02:39:26.935Z,8.98
2023-05-14T02:40:27.207Z,8.95
2023-05-14T02:41:27.220Z,8.98
2023-05-14T02:42:26.990Z,8.96
2023-05-14T02:43:27.237Z,8.98
2023-05-14T02:44:27.003Z,8.95
2023-05-14T02:45:27.006Z,8.98
2023-05-14T02:46:27.027Z,9.01
2023-05-14T02:47:26.946Z,8.99
2023-05-14T02:48:27.059Z,9.01
2023-05-14T02:49:27.022Z,9.01
2023-05-14T02:50:26.974Z,8.95
2023-05-14T02:51:27.218Z,8.96
2023-05-14T02:52:26.869Z,8.95
2023-05-14T02:53:26.844Z,8.92
2023-05-14T02:54:27.357Z,8.93
2023-05-14T02:55:27.374Z,8.88
2023-05-14T02:56:27.183Z,8.86
2023-05-14T02:57:27.407Z,8.83
2023-05-14T02:58:28.458Z,8.81
2023-05-14T02:59:27.422Z,8.81
2023-05-14T03:00:27.178Z,8.77
2023-05-14T03:01:27.392Z,8.71
2023-05-14T03:02:27.211Z,8.70
2023-05-14T03:03:27.505Z,8.72
2023-05-14T03:04:27.480Z,8.72
2023-05-14T03:05:26.776Z,8.74
2023-05-14T03:06:27.488Z,8.75
2023-05-14T03:07:26.801Z,8.71
2023-05-14T03:08:27.232Z,8.74
2023-05-14T03:09:27.522Z,8.75
2023-05-14T03:10:27.374Z,8.72
2023-05-14T03:11:27.497Z,8.65
2023-05-14T03:12:26.770Z,8.65
2023-05-14T03:13:26.730Z,8.65
2023-05-14T03:14:26.833Z,8.70
2023-05-14T03:15:26.833Z,8.68
2023-05-14T03:16:26.938Z,8.65
2023-05-14T03:17:26.973Z,8.68
2023-05-14T03:18:27.015Z,8.65
2023-05-14T03:19:26.723Z,8.63
2023-05-14T03:20:26.798Z,8.62
2023-05-14T03:21:26.669Z,8.57
2023-05-14T03:22:26.723Z,8.55
2023-05-14T03:23:26.686Z,8.56
2023-05-14T03:24:26.827Z,8.53
2023-05-14T03:25:26.858Z,8.52
2023-05-14T03:26:26.920Z,8.50
2023-05-14T03:27:26.958Z,8.55
2023-05-14T03:28:26.877Z,8.53
2023-05-14T03:29:27.046Z,8.55
2023-05-14T03:30:27.221Z,8.53
2023-05-14T03:31:26.989Z,8.55
2023-05-14T03:32:27.259Z,8.50
2023-05-14T03:33:27.173Z,8.49
2023-05-14T03:34:26.584Z,8.50
2023-05-14T03:35:26.876Z,8.47
2023-05-14T03:36:27.114Z,8.41
2023-05-14T03:37:26.548Z,8.39
2023-05-14T03:38:26.548Z,8.32
2023-05-14T03:39:26.560Z,8.37
2023-05-14T03:40:26.639Z,8.38
2023-05-14T03:41:26.585Z,8.38
2023-05-14T03:42:26.616Z,8.37
2023-05-14T03:43:26.519Z,8.41
2023-05-14T03:44:26.532Z,8.46
2023-05-14T03:45:26.597Z,8.39
2023-05-14T03:46:26.670Z,8.38
2023-05-14T03:47:26.727Z,8.42
2023-05-14T03:48:26.771Z,8.37
2023-05-14T03:49:26.700Z,8.37
2023-05-14T03:50:26.727Z,8.41
2023-05-14T03:51:26.511Z,8.38
2023-05-14T03:52:26.500Z,8.35
2023-05-14T03:53:26.461Z,8.32
2023-05-14T03:54:26.741Z,8.35
2023-05-14T03:55:26.773Z,8.29
2023-05-14T03:56:27.942Z,8.29
2023-05-14T03:57:26.799Z,8.29
2023-05-14T03:58:26.550Z,8.29
2023-05-14T03:59:26.706Z,8.29
2023-05-14T04:00:27.478Z,8.29
2023-05-14T04:01:26.788Z,8.34
2023-05-14T04:02:27.966Z,8.31
2023-05-14T04:03:26.433Z,8.28
2023-05-14T04:04:26.453Z,8.28
2023-05-14T04:05:26.381Z,8.28
2023-05-14T04:06:26.440Z,8.28
2023-05-14T04:07:26.487Z,8.31
2023-05-14T04:08:26.412Z,8.26
2023-05-14T04:09:26.330Z,8.26
2023-05-14T04:10:26.433Z,8.26
2023-05-14T04:11:26.346Z,8.29
2023-05-14T04:12:26.353Z,8.32
2023-05-14T04:13:26.350Z,8.32
2023-05-14T04:14:26.307Z,8.35
2023-05-14T04:15:26.372Z,8.35
2023-05-14T04:16:26.466Z,8.32
2023-05-14T04:17:26.485Z,8.35
2023-05-14T04:18:26.622Z,8.39
2023-05-14T04:19:26.274Z,8.44
2023-05-14T04:20:26.626Z,8.41
2023-05-14T04:21:26.268Z,8.47
2023-05-14T04:22:26.274Z,8.52
2023-05-14T04:23:26.287Z,8.57
2023-05-14T04:24:26.304Z,8.60
2023-05-14T04:25:26.312Z,8.67
2023-05-14T04:26:26.246Z,8.68
2023-05-14T04:27:26.239Z,8.67
2023-05-14T04:28:26.246Z,8.65
2023-05-14T04:29:26.381Z,8.65
2023-05-14T04:30:26.425Z,8.62
2023-05-14T04:31:26.414Z,8.67
2023-05-14T04:32:26.424Z,8.67
2023-05-14T04:33:26.255Z,8.67
2023-05-14T04:34:26.445Z,8.67
2023-05-14T04:35:26.445Z,8.68
2023-05-14T04:36:26.233Z,8.70
2023-05-14T04:37:26.493Z,8.74
2023-05-14T04:38:26.138Z,8.78
2023-05-14T04:39:26.133Z,8.83
2023-05-14T04:40:26.462Z,8.86
2023-05-14T04:41:26.231Z,8.88
2023-05-14T04:42:26.271Z,8.92
2023-05-14T04:43:26.116Z,8.95
2023-05-14T04:44:26.277Z,8.98
2023-05-14T04:45:26.439Z,9.08
2023-05-14T04:46:26.517Z,9.11
2023-05-14T04:47:26.598Z,9.16
2023-05-14T04:48:26.640Z,9.19
2023-05-14T04:49:26.184Z,9.24
2023-05-14T04:50:26.646Z,9.26
2023-05-14T04:51:26.646Z,9.30
2023-05-14T04:52:26.672Z,9.34
2023-05-14T04:53:26.675Z,9.44
2023-05-14T04:54:26.824Z,9.45
2023-05-14T04:55:26.708Z,9.48
2023-05-14T04:56:26.154Z,9.54
2023-05-14T04:57:26.263Z,9.59
2023-05-14T04:58:26.147Z,9.63
2023-05-14T04:59:26.765Z,9.63
2023-05-14T05:00:26.741Z,9.67
2023-05-14T05:01:26.028Z,9.72
2023-05-14T05:02:26.142Z,9.75
2023-05-14T05:03:26.602Z,9.83
2023-05-14T05:04:26.827Z,9.85
2023-05-14T05:05:26.107Z,9.91
2023-05-14T05:06:25.976Z,9.93
2023-05-14T05:07:26.017Z,10.01
2023-05-14T05:08:26.063Z,10.08
2023-05-14T05:09:26.114Z,10.12
2023-05-14T05:10:26.226Z,10.17
2023-05-14T05:11:25.955Z,10.17
2023-05-14T05:12:25.979Z,10.21
2023-05-14T05:13:26.024Z,10.27
2023-05-14T05:14:26.083Z,10.35
2023-05-14T05:15:26.654Z,10.39
2023-05-14T05:16:26.165Z,10.45
2023-05-14T05:17:26.260Z,10.52
2023-05-14T05:18:26.372Z,10.61
2023-05-14T05:19:35.851Z,10.68
2023-05-14T05:20:26.430Z,10.73
2023-05-14T05:21:26.470Z,10.80
2023-05-14T05:22:26.554Z,10.86
2023-05-14T05:23:26.292Z,10.91
2023-05-14T05:24:26.665Z,10.95
2023-05-14T05:25:25.824Z,10.97
2023-05-14T05:26:25.836Z,11.01
2023-05-14T05:27:25.867Z,11.00
2023-05-14T05:28:25.871Z,11.04
2023-05-14T05:29:25.870Z,11.13
2023-05-14T05:30:26.058Z,11.20
2023-05-14T05:31:25.926Z,11.20
2023-05-14T05:32:25.895Z,11.33
2023-05-14T05:33:25.902Z,11.40
2023-05-14T05:34:25.888Z,11.48
2023-05-14T05:35:26.328Z,11.59
2023-05-14T05:36:26.299Z,11.69
2023-05-14T05:37:25.760Z,11.80
2023-05-14T05:38:25.754Z,11.93
2023-05-14T05:39:25.800Z,12.04
2023-05-14T05:40:25.928Z,12.14
2023-05-14T05:41:25.731Z,12.23
2023-05-14T05:42:25.728Z,12.29
2023-05-14T05:43:25.770Z,12.44
2023-05-14T05:44:25.735Z,12.43
2023-05-14T05:45:25.901Z,12.44
2023-05-14T05:46:25.826Z,12.59
2023-05-14T05:47:26.060Z,12.62
2023-05-14T05:48:26.136Z,12.73
2023-05-14T05:49:26.241Z,12.84
2023-05-14T05:50:26.118Z,12.95
2023-05-14T05:51:25.661Z,13.08
2023-05-14T05:52:25.689Z,13.19
2023-05-14T05:53:26.504Z,13.24
2023-05-14T05:54:26.045Z,13.35
2023-05-14T05:55:26.157Z,13.39
2023-05-14T05:56:25.605Z,13.43
2023-05-14T05:57:26.380Z,13.54
2023-05-14T05:58:25.621Z,13.58
2023-05-14T05:59:25.640Z,13.60
2023-05-14T06:00:25.979Z,13.67
2023-05-14T06:01:25.691Z,13.65
2023-05-14T06:02:25.825Z,13.75
2023-05-14T06:03:25.704Z,13.85
2023-05-14T06:04:25.857Z,13.90
2023-05-14T06:05:25.736Z,13.97
2023-05-14T06:06:25.951Z,13.98
2023-05-14T06:07:25.703Z,14.04
2023-05-14T06:08:25.557Z,14.11
2023-05-14T06:09:25.564Z,14.16
2023-05-14T06:10:25.789Z,14.22
2023-05-14T06:11:25.682Z,14.30
2023-05-14T06:12:25.815Z,14.34
2023-05-14T06:13:25.806Z,14.45
2023-05-14T06:14:25.857Z,14.49
2023-05-14T06:15:25.912Z,14.59
2023-05-14T06:16:25.996Z,14.67
2023-05-14T06:17:25.693Z,14.78
2023-05-14T06:18:25.940Z,14.86
2023-05-14T06:19:26.134Z,14.93
2023-05-14T06:20:26.503Z,15.03
2023-05-14T06:21:26.142Z,15.08
2023-05-14T06:22:25.758Z,15.19
2023-05-14T06:23:25.443Z,15.19
2023-05-14T06:24:25.506Z,15.17
2023-05-14T06:25:26.166Z,15.15
2023-05-14T06:26:26.206Z,15.12
2023-05-14T06:27:25.519Z,15.07
2023-05-14T06:28:25.417Z,15.11
2023-05-14T06:29:25.421Z,15.15
2023-05-14T06:30:25.749Z,15.20
2023-05-14T06:31:25.468Z,15.08
2023-05-14T06:32:26.210Z,15.05
2023-05-14T06:33:25.437Z,15.03
2023-05-14T06:34:25.446Z,14.97
2023-05-14T06:35:25.449Z,14.93
2023-05-14T06:36:25.458Z,14.89
2023-05-14T06:37:25.389Z,14.86
2023-05-14T06:38:25.345Z,14.77
2023-05-14T06:39:25.366Z,14.74
2023-05-14T06:40:25.574Z,14.66
2023-05-14T06:41:25.413Z,14.61
2023-05-14T06:42:25.312Z,14.55
2023-05-14T06:43:25.301Z,14.48
2023-05-14T06:44:25.450Z,14.36
2023-05-14T06:45:25.314Z,14.30
2023-05-14T06:46:25.473Z,14.27
2023-05-14T06:47:25.361Z,14.21
2023-05-14T06:48:25.569Z,14.16
2023-05-14T06:49:25.496Z,14.16
2023-05-14T06:50:25.765Z,14.15
2023-05-14T06:51:25.285Z,14.08
2023-05-14T06:52:25.236Z,14.01
2023-05-14T06:53:25.243Z,13.98
2023-05-14T06:54:25.285Z,14.00
2023-05-14T06:55:25.245Z,13.94
2023-05-14T06:56:25.252Z,13.91
2023-05-14T06:57:25.256Z,13.93
2023-05-14T06:58:25.208Z,13.85
2023-05-14T06:59:25.201Z,13.90
2023-05-14T07:00:25.676Z,13.90
2023-05-14T07:01:25.344Z,13.90
2023-05-14T07:02:25.252Z,13.94
2023-05-14T07:03:25.334Z,13.96
2023-05-14T07:04:25.370Z,13.97
2023-05-14T07:05:25.233Z,14.00
2023-05-14T07:06:25.248Z,14.04
2023-05-14T07:07:25.392Z,14.05
2023-05-14T07:08:25.121Z,14.12
2023-05-14T07:09:25.478Z,14.15
2023-05-14T07:10:25.639Z,14.18
2023-05-14T07:11:25.120Z,14.21
2023-05-14T07:12:25.132Z,14.26
2023-05-14T07:13:27.641Z,14.26
2023-05-14T07:14:25.116Z,14.34
2023-05-14T07:15:25.142Z,14.44
2023-05-14T07:16:25.166Z,14.56
2023-05-14T07:17:25.354Z,14.69
2023-05-14T07:18:25.392Z,14.83
2023-05-14T07:19:25.426Z,14.99
2023-05-14T07:20:25.645Z,15.10
2023-05-14T07:21:25.553Z,15.19
2023-05-14T07:22:25.029Z,15.30
2023-05-14T07:23:25.601Z,15.30
2023-05-14T07:24:25.585Z,15.32
2023-05-14T07:25:25.587Z,15.43
2023-05-14T07:26:25.587Z,15.44
2023-05-14T07:27:25.618Z,15.44
2023-05-14T07:28:25.609Z,15.47
2023-05-14T07:29:25.203Z,15.45
2023-05-14T07:30:25.846Z,15.47
2023-05-14T07:31:25.608Z,15.44
2023-05-14T07:32:25.498Z,15.45
2023-05-14T07:33:25.011Z,15.47
2023-05-14T07:34:25.026Z,15.48
2023-05-14T07:35:25.230Z,15.51
2023-05-14T07:36:24.976Z,15.58
2023-05-14T07:37:24.930Z,15.63
2023-05-14T07:38:25.048Z,15.77
2023-05-14T07:39:24.984Z,15.87
2023-05-14T07:40:25.519Z,15.99
2023-05-14T07:41:25.073Z,16.13
2023-05-14T07:42:35.303Z,16.32
2023-05-14T07:43:25.225Z,16.43
2023-05-14T07:44:25.307Z,16.47
2023-05-14T07:45:24.913Z,16.52
2023-05-14T07:46:24.926Z,16.67
2023-05-14T07:47:25.002Z,16.80
2023-05-14T07:48:24.931Z,16.94
2023-05-14T07:49:24.853Z,17.04
2023-05-14T07:50:25.241Z,17.13
2023-05-14T07:51:24.928Z,17.19
2023-05-14T07:52:25.044Z,17.31
2023-05-14T07:53:24.942Z,17.41
2023-05-14T07:54:24.962Z,17.56
2023-05-14T07:55:24.953Z,17.73
2023-05-14T07:56:25.011Z,17.81
2023-05-14T07:57:24.825Z,17.86
2023-05-14T07:58:24.983Z,17.83
2023-05-14T07:59:24.981Z,17.87
2023-05-14T08:00:25.254Z,17.93
2023-05-14T08:01:24.827Z,17.94
2023-05-14T08:02:24.842Z,18.05
2023-05-14T08:03:25.220Z,18.15
2023-05-14T08:04:25.146Z,18.11
2023-05-14T08:05:25.080Z,18.02
2023-05-14T08:06:24.757Z,17.83
2023-05-14T08:07:24.714Z,17.68
2023-05-14T08:08:24.764Z,17.66
2023-05-14T08:09:24.700Z,17.71
2023-05-14T08:10:25.024Z,17.81
2023-05-14T08:11:24.711Z,17.97
2023-05-14T08:12:24.694Z,18.15
2023-05-14T08:13:24.713Z,18.20
2023-05-14T08:14:24.989Z,18.21
2023-05-14T08:15:27.549Z,18.13
2023-05-14T08:16:25.168Z,18.15
2023-05-14T08:17:24.922Z,18.20
2023-05-14T08:18:25.242Z,18.30
2023-05-14T08:19:25.290Z,18.36
2023-05-14T08:20:25.868Z,18.52
2023-05-14T08:21:24.790Z,18.61
2023-05-14T08:22:25.487Z,18.57
2023-05-14T08:23:24.623Z,18.64
2023-05-14T08:24:24.741Z,18.79
2023-05-14T08:25:25.360Z,18.91
2023-05-14T08:26:24.616Z,19.05
2023-05-14T08:27:24.637Z,19.04
2023-05-14T08:28:24.572Z,19.00
2023-05-14T08:29:24.640Z,18.94
2023-05-14T08:30:24.876Z,18.91
2023-05-14T08:31:24.658Z,18.79
2023-05-14T08:32:24.658Z,18.81
2023-05-14T08:33:24.601Z,18.86
2023-05-14T08:34:24.602Z,18.97
2023-05-14T08:35:24.644Z,19.20
2023-05-14T08:36:24.602Z,19.34
2023-05-14T08:37:24.622Z,19.49
2023-05-14T08:38:24.593Z,19.62
2023-05-14T08:39:24.524Z,19.74
2023-05-14T08:40:24.709Z,19.86
2023-05-14T08:41:24.525Z,19.90
2023-05-14T08:42:24.532Z,19.86
2023-05-14T08:43:24.676Z,19.90
2023-05-14T08:44:24.547Z,20.00
2023-05-14T08:45:24.549Z,20.14
2023-05-14T08:46:24.697Z,20.18
2023-05-14T08:47:24.516Z,20.32
2023-05-14T08:48:24.575Z,20.48
2023-05-14T08:49:24.787Z,20.55
2023-05-14T08:50:25.175Z,20.49
2023-05-14T08:51:24.714Z,20.48
2023-05-14T08:52:24.806Z,20.48
2023-05-14T08:53:24.825Z,20.56
2023-05-14T08:54:24.847Z,20.55
2023-05-14T08:55:24.408Z,20.49
2023-05-14T08:56:24.620Z,20.49
2023-05-14T08:57:24.418Z,20.63
2023-05-14T08:58:24.911Z,20.71
2023-05-14T08:59:24.899Z,20.70
2023-05-14T09:00:24.869Z,20.85
2023-05-14T09:01:24.642Z,20.83
2023-05-14T09:02:24.537Z,20.68
2023-05-14T09:03:24.975Z,20.75
2023-05-14T09:04:24.967Z,20.75
2023-05-14T09:05:24.496Z,20.77
2023-05-14T09:06:24.994Z,20.88
2023-05-14T09:07:24.421Z,21.07
2023-05-14T09:08:24.323Z,21.08
2023-05-14T09:09:24.328Z,21.05
2023-05-14T09:10:24.765Z,21.16
2023-05-14T09:11:24.481Z,21.14
2023-05-14T09:12:24.557Z,21.10
2023-05-14T09:13:25.807Z,21.18
2023-05-14T09:14:24.670Z,21.16
2023-05-14T09:15:24.340Z,21.18
2023-05-14T09:16:24.849Z,21.11
2023-05-14T09:17:24.330Z,21.28
2023-05-14T09:18:24.979Z,21.26
2023-05-14T09:19:24.965Z,21.32
2023-05-14T09:20:25.535Z,21.44
2023-05-14T09:21:24.847Z,21.63
2023-05-14T09:22:24.397Z,21.77
2023-05-14T09:23:24.803Z,21.96
2023-05-14T09:24:24.530Z,22.06
2023-05-14T09:25:25.254Z,22.15
2023-05-14T09:26:24.949Z,22.18
2023-05-14T09:27:24.551Z,22.06
2023-05-14T09:28:24.750Z,22.22
2023-05-14T09:29:24.199Z,22.40
2023-05-14T09:30:25.361Z,22.31
2023-05-14T09:31:24.175Z,22.22
2023-05-14T09:32:24.695Z,22.33
2023-05-14T09:33:24.473Z,22.33
2023-05-14T09:34:24.824Z,22.30
2023-05-14T09:35:25.027Z,22.37
2023-05-14T09:36:24.109Z,22.34
2023-05-14T09:37:24.107Z,22.37
2023-05-14T09:38:24.114Z,22.38
2023-05-14T09:39:24.188Z,22.44
2023-05-14T09:40:24.819Z,22.43
2023-05-14T09:41:24.127Z,22.41
2023-05-14T09:42:24.236Z,22.36
2023-05-14T09:43:24.098Z,22.36
2023-05-14T09:44:24.136Z,22.38
2023-05-14T09:45:24.429Z,22.49
2023-05-14T09:46:24.441Z,22.51
2023-05-14T09:47:24.575Z,22.55
2023-05-14T09:48:24.557Z,22.34
2023-05-14T09:49:24.248Z,22.33
2023-05-14T09:50:24.667Z,22.04
2023-05-14T09:51:24.009Z,22.07
2023-05-14T09:52:23.998Z,22.21
2023-05-14T09:53:24.027Z,22.25
2023-05-14T09:54:24.010Z,22.36
2023-05-14T09:55:23.997Z,22.31
2023-05-14T09:56:23.973Z,22.41
2023-05-14T09:57:23.995Z,22.41
2023-05-14T09:58:24.345Z,22.16
2023-05-14T09:59:24.029Z,22.04
2023-05-14T10:00:24.106Z,21.90
2023-05-14T10:01:24.522Z,22.06
2023-05-14T10:02:24.567Z,22.13
2023-05-14T10:03:24.029Z,22.30
2023-05-14T10:04:23.975Z,22.36
2023-05-14T10:05:23.927Z,22.40
2023-05-14T10:06:23.972Z,22.43
2023-05-14T10:07:24.037Z,22.59
2023-05-14T10:08:23.956Z,22.68
2023-05-14T10:09:23.903Z,22.68
2023-05-14T10:10:24.283Z,22.76
2023-05-14T10:11:23.945Z,22.77
2023-05-14T10:12:24.215Z,22.77
2023-05-14T10:13:24.161Z,22.98
2023-05-14T10:14:24.469Z,23.01
2023-05-14T10:15:24.507Z,23.01
2023-05-14T10:16:24.447Z,23.11
2023-05-14T10:17:24.057Z,23.21
2023-05-14T10:18:24.700Z,23.28
2023-05-14T10:19:24.339Z,23.22
2023-05-14T10:20:24.399Z,23.04
2023-05-14T10:21:24.489Z,22.86
2023-05-14T10:22:23.963Z,22.76
2023-05-14T10:23:24.821Z,22.86
2023-05-14T10:24:24.281Z,22.62
2023-05-14T10:25:24.097Z,22.68
2023-05-14T10:26:24.357Z,22.92
2023-05-14T10:27:24.633Z,22.89
2023-05-14T10:28:23.965Z,22.96
2023-05-14T10:29:24.269Z,23.10
2023-05-14T10:30:24.427Z,23.25
2023-05-14T10:31:24.118Z,23.31
2023-05-14T10:32:23.885Z,23.29
2023-05-14T10:33:23.806Z,23.08
2023-05-14T10:34:23.804Z,22.95
2023-05-14T10:35:23.933Z,22.92
2023-05-14T10:36:23.739Z,23.07
2023-05-14T10:37:23.744Z,23.14
2023-05-14T10:38:23.839Z,23.11
2023-05-14T10:39:23.855Z,22.92
2023-05-14T10:40:24.284Z,22.77
2023-05-14T10:41:23.986Z,22.71
2023-05-14T10:42:23.988Z,22.95
2023-05-14T10:43:23.986Z,23.08
2023-05-14T10:44:24.089Z,23.46
2023-05-14T10:45:24.112Z,23.84
2023-05-14T10:46:23.830Z,24.22
2023-05-14T10:47:23.821Z,24.55
2023-05-14T10:48:23.776Z,24.29
2023-05-14T10:49:36.187Z,24.44
2023-05-14T10:50:24.116Z,24.70
2023-05-14T10:51:23.767Z,25.08
2023-05-14T10:52:23.843Z,25.27
2023-05-14T10:53:23.739Z,24.55
2023-05-14T10:54:23.751Z,24.40
2023-05-14T10:55:23.668Z,24.41
2023-05-14T10:56:23.555Z,24.59
2023-05-14T10:57:23.766Z,24.52
2023-05-14T10:58:23.763Z,23.97
2023-05-14T10:59:23.775Z,23.17
2023-05-14T11:00:24.044Z,22.67
2023-05-14T11:01:23.552Z,23.06
2023-05-14T11:02:23.568Z,23.44
2023-05-14T11:03:23.691Z,23.92
2023-05-14T11:04:23.706Z,24.41
2023-05-14T11:05:23.661Z,24.78
2023-05-14T11:06:23.558Z,24.99
2023-05-14T11:07:23.604Z,25.18
2023-05-14T11:08:26.476Z,25.63
2023-05-14T11:09:23.854Z,25.78
2023-05-14T11:10:24.195Z,25.74
2023-05-14T11:11:23.496Z,25.92
2023-05-14T11:12:23.661Z,26.08
2023-05-14T11:13:23.617Z,26.43
2023-05-14T11:14:23.742Z,26.42
2023-05-14T11:15:23.938Z,26.48
2023-05-14T11:16:24.137Z,26.64
2023-05-14T11:17:23.449Z,26.97
2023-05-14T11:18:23.976Z,26.97
2023-05-14T11:19:23.984Z,26.95
2023-05-14T11:20:23.866Z,26.97
2023-05-14T11:21:23.562Z,26.97
2023-05-14T11:22:23.465Z,26.86
2023-05-14T11:23:23.818Z,26.80
2023-05-14T11:24:23.396Z,26.68
2023-05-14T11:25:23.396Z,26.58
2023-05-14T11:26:23.402Z,26.42
2023-05-14T11:27:23.412Z,26.34
2023-05-14T11:28:23.405Z,26.36
2023-05-14T11:29:23.409Z,26.00
2023-05-14T11:30:23.648Z,25.90
2023-05-14T11:31:23.370Z,25.93
2023-05-14T11:32:23.487Z,26.19
2023-05-14T11:33:23.455Z,26.38
2023-05-14T11:35:49.344Z,26.98
2023-05-14T11:36:49.357Z,27.16
2023-05-14T11:37:49.389Z,27.16
2023-05-14T11:38:49.385Z,27.16
2023-05-14T11:39:49.280Z,27.05
2023-05-14T11:40:49.294Z,26.71
2023-05-14T11:41:49.278Z,26.33
2023-05-14T11:42:49.292Z,26.27
2023-05-14T11:43:49.307Z,26.58
2023-05-14T11:44:49.319Z,27.00
2023-05-14T11:45:49.354Z,26.93
2023-05-14T11:46:49.346Z,27.13
2023-05-14T11:47:49.269Z,26.90
2023-05-14T11:48:49.379Z,27.31
2023-05-14T11:49:49.241Z,27.52
2023-05-14T11:50:49.314Z,27.17
2023-05-14T11:51:49.279Z,26.79
2023-05-14T11:52:49.266Z,26.38
2023-05-14T11:53:49.227Z,26.53
2023-05-14T11:54:49.340Z,26.63
2023-05-14T11:55:49.275Z,26.61
2023-05-14T11:56:49.484Z,26.94
2023-05-14T11:57:49.253Z,26.95
2023-05-14T11:58:49.436Z,26.88
2023-05-14T11:59:49.157Z,26.78
2023-05-14T12:00:49.225Z,26.86
2023-05-14T12:01:50.672Z,26.80
2023-05-14T12:02:49.453Z,26.61
2023-05-14T12:03:49.482Z,26.30
2023-05-14T12:04:49.246Z,25.92
2023-05-14T12:05:49.317Z,26.08
2023-05-14T12:06:49.552Z,26.05
2023-05-14T12:07:49.151Z,25.95
2023-05-14T12:08:49.132Z,25.93
2023-05-14T12:09:49.172Z,26.43
2023-05-14T12:10:49.178Z,26.49
2023-05-14T12:11:49.135Z,26.38
2023-05-14T12:12:49.280Z,26.39
2023-05-14T12:13:49.123Z,26.43
2023-05-14T12:14:49.096Z,26.70
2023-05-14T12:15:49.212Z,26.86
2023-05-14T12:16:49.066Z,27.07
2023-05-14T12:17:49.081Z,27.37
2023-05-14T12:18:49.106Z,27.31
2023-05-14T12:19:49.073Z,27.17
2023-05-14T12:20:49.188Z,27.27
2023-05-14T12:21:49.197Z,27.35
2023-05-14T12:22:49.152Z,27.07
2023-05-14T12:23:49.018Z,26.90
2023-05-14T12:24:49.080Z,26.53
2023-05-14T12:25:49.207Z,26.58
2023-05-14T12:26:49.217Z,26.82
2023-05-14T12:27:49.251Z,26.98
2023-05-14T12:28:49.198Z,26.86
2023-05-14T12:29:49.227Z,26.70
2023-05-14T12:30:49.214Z,26.86
2023-05-14T12:31:49.106Z,26.98
2023-05-14T12:32:49.202Z,26.61
2023-05-14T12:33:49.096Z,26.43
2023-05-14T12:34:49.142Z,26.53
2023-05-14T12:35:49.070Z,26.60
2023-05-14T12:36:49.098Z,26.82
2023-05-14T12:37:49.225Z,26.48
2023-05-14T12:38:49.155Z,26.64
2023-05-14T12:39:48.994Z,26.83
2023-05-14T12:40:49.231Z,26.85
2023-05-14T12:41:49.380Z,26.68
2023-05-14T12:42:49.199Z,26.43
2023-05-14T12:43:48.908Z,26.24
2023-05-14T12:44:49.405Z,26.24
2023-05-14T12:45:48.898Z,26.10
2023-05-14T12:46:49.493Z,25.53
2023-05-14T12:47:49.536Z,25.22
2023-05-14T12:48:51.129Z,25.14
2023-05-14T12:49:48.850Z,25.33
2023-05-14T12:50:48.847Z,25.43
2023-05-14T12:51:51.192Z,25.37
2023-05-14T12:52:48.872Z,25.15
2023-05-14T12:53:48.843Z,25.34
2023-05-14T12:54:48.855Z,25.31
2023-05-14T12:55:48.859Z,25.46
2023-05-14T12:56:48.873Z,25.41
2023-05-14T12:57:48.880Z,25.43
2023-05-14T12:58:48.917Z,25.53
2023-05-14T12:59:49.766Z,25.82
2023-05-14T13:00:48.845Z,25.67